TimeMDT,TemperatureF,Dew PointF,Humidity,Sea Level PressureIn,VisibilityMPH,Wind Direction,Wind SpeedMPH,Gust SpeedMPH,PrecipitationIn,Events,Conditions,WindDirDegrees,DateUTC
12:15 AM,32.0,12.2,44,30.30,10.0,ESE,3.5,-,N/A,,Clear,110,2012-10-28 06:15:00
12:35 AM,32.0,12.2,44,30.30,10.0,ESE,5.8,-,N/A,,Clear,110,2012-10-28 06:35:00
12:55 AM,32.0,12.2,44,30.30,10.0,East,3.5,-,N/A,,Clear,100,2012-10-28 06:55:00
1:15 AM,32.0,12.2,44,30.30,10.0,SE,4.6,-,N/A,,Scattered Clouds,130,2012-10-28 07:15:00
1:35 AM,32.0,12.2,44,30.29,10.0,SE,5.8,-,N/A,,Scattered Clouds,130,2012-10-28 07:35:00
1:55 AM,32.0,12.2,44,30.29,10.0,ESE,6.9,-,N/A,,Scattered Clouds,110,2012-10-28 07:55:00
2:15 AM,32.0,12.2,44,30.29,10.0,ESE,3.5,-,N/A,,Clear,110,2012-10-28 08:15:00
2:35 AM,32.0,12.2,44,30.29,10.0,SE,4.6,-,N/A,,Clear,130,2012-10-28 08:35:00
2:55 AM,32.0,12.2,44,30.29,10.0,ESE,3.5,-,N/A,,Clear,120,2012-10-28 08:55:00
3:15 AM,32.0,12.2,44,30.29,10.0,SE,5.8,-,N/A,,Clear,130,2012-10-28 09:15:00
3:35 AM,32.0,14.0,48,30.28,10.0,ESE,5.8,-,N/A,,Clear,120,2012-10-28 09:35:00
3:55 AM,32.0,12.2,44,30.28,10.0,ESE,4.6,-,N/A,,Clear,110,2012-10-28 09:55:00
4:15 AM,32.0,12.2,44,30.28,10.0,ESE,3.5,-,N/A,,Clear,120,2012-10-28 10:15:00
4:35 AM,32.0,12.2,44,30.29,10.0,Calm,Calm,-,N/A,,Clear,0,2012-10-28 10:35:00
4:55 AM,32.0,14.0,48,30.29,10.0,ESE,3.5,-,N/A,,Clear,110,2012-10-28 10:55:00
5:15 AM,32.0,15.8,51,30.29,10.0,ESE,4.6,-,N/A,,Clear,120,2012-10-28 11:15:00
5:35 AM,30.2,17.6,60,30.29,10.0,East,4.6,-,N/A,,Clear,90,2012-10-28 11:35:00
5:55 AM,32.0,15.8,51,30.29,10.0,ESE,3.5,-,N/A,,Clear,120,2012-10-28 11:55:00
6:15 AM,32.0,17.6,55,30.29,10.0,ESE,3.5,-,N/A,,Clear,120,2012-10-28 12:15:00
6:35 AM,32.0,17.6,55,30.30,10.0,ESE,4.6,-,N/A,,Clear,120,2012-10-28 12:35:00
7:15 AM,30.2,17.6,60,30.30,10.0,East,3.5,-,N/A,,Clear,80,2012-10-28 13:15:00
7:35 AM,30.2,17.6,60,30.31,10.0,Calm,Calm,-,N/A,,Clear,0,2012-10-28 13:35:00
7:55 AM,32.0,19.4,60,30.31,10.0,ESE,3.5,-,N/A,,Clear,120,2012-10-28 13:55:00
8:15 AM,32.0,19.4,60,30.31,10.0,SE,4.6,-,N/A,,Clear,130,2012-10-28 14:15:00
8:55 AM,33.8,19.4,56,30.32,10.0,Calm,Calm,-,N/A,,Clear,0,2012-10-28 14:55:00
9:15 AM,35.6,21.2,56,30.33,10.0,Calm,Calm,-,N/A,,Clear,0,2012-10-28 15:15:00
9:35 AM,37.4,21.2,52,30.32,10.0,Calm,Calm,-,N/A,,Clear,0,2012-10-28 15:35:00
9:55 AM,39.2,21.2,49,30.32,10.0,Calm,Calm,-,N/A,,Clear,0,2012-10-28 15:55:00
10:15 AM,41.0,21.2,45,30.32,10.0,Calm,Calm,-,N/A,,Clear,0,2012-10-28 16:15:00
10:35 AM,42.8,23.0,46,30.32,10.0,Calm,Calm,-,N/A,,Clear,0,2012-10-28 16:35:00
10:55 AM,44.6,24.8,46,30.33,10.0,West,5.8,-,N/A,,Clear,270,2012-10-28 16:55:00
11:15 AM,46.4,26.6,46,30.32,10.0,West,6.9,-,N/A,,Clear,270,2012-10-28 17:15:00
11:35 AM,46.4,24.8,43,30.32,10.0,West,5.8,-,N/A,,Clear,270,2012-10-28 17:35:00
11:55 AM,46.4,26.6,46,30.32,10.0,West,11.5,-,N/A,,Clear,270,2012-10-28 17:55:00
12:15 PM,48.2,26.6,43,30.32,10.0,WSW,10.4,17.3,N/A,,Clear,250,2012-10-28 18:15:00
12:35 PM,50.0,26.6,40,30.32,10.0,WSW,10.4,17.3,N/A,,Clear,250,2012-10-28 18:35:00
12:55 PM,50.0,26.6,40,30.31,10.0,WSW,11.5,17.3,N/A,,Clear,240,2012-10-28 18:55:00
1:15 PM,50.0,26.6,40,30.30,10.0,WSW,11.5,-,N/A,,Clear,240,2012-10-28 19:15:00
1:35 PM,50.0,26.6,40,30.29,10.0,WSW,10.4,-,N/A,,Clear,250,2012-10-28 19:35:00
1:55 PM,51.8,26.6,38,30.29,10.0,WSW,11.5,-,N/A,,Clear,250,2012-10-28 19:55:00
2:15 PM,51.8,26.6,38,30.29,10.0,WSW,13.8,-,N/A,,Clear,250,2012-10-28 20:15:00
2:35 PM,51.8,26.6,38,30.28,10.0,West,12.7,16.1,N/A,,Clear,260,2012-10-28 20:35:00
2:55 PM,51.8,26.6,38,30.28,10.0,West,11.5,-,N/A,,Clear,260,2012-10-28 20:55:00
3:15 PM,51.8,26.6,38,30.28,10.0,WSW,11.5,17.3,N/A,,Clear,250,2012-10-28 21:15:00
3:35 PM,51.8,26.6,38,30.28,10.0,West,12.7,18.4,N/A,,Clear,260,2012-10-28 21:35:00
3:55 PM,51.8,26.6,38,30.28,10.0,West,11.5,17.3,N/A,,Clear,260,2012-10-28 21:55:00
4:15 PM,51.8,24.8,35,30.28,10.0,West,13.8,17.3,N/A,,Clear,260,2012-10-28 22:15:00
4:35 PM,50.0,23.0,35,30.29,10.0,West,15.0,-,N/A,,Clear,260,2012-10-28 22:35:00
4:55 PM,50.0,23.0,35,30.29,10.0,West,12.7,17.3,N/A,,Clear,260,2012-10-28 22:55:00
5:15 PM,48.2,23.0,37,30.28,10.0,West,9.2,-,N/A,,Clear,270,2012-10-28 23:15:00
5:35 PM,48.2,21.2,34,30.29,10.0,West,8.1,-,N/A,,Clear,270,2012-10-28 23:35:00
5:55 PM,46.4,21.2,37,30.29,10.0,West,9.2,-,N/A,,Clear,270,2012-10-28 23:55:00
6:15 PM,46.4,23.0,40,30.30,10.0,West,9.2,-,N/A,,Clear,280,2012-10-29 00:15:00
6:35 PM,44.6,23.0,43,30.30,10.0,West,8.1,-,N/A,,Clear,260,2012-10-29 00:35:00
6:55 PM,44.6,24.8,46,30.30,10.0,WSW,6.9,-,N/A,,Clear,240,2012-10-29 00:55:00
7:15 PM,42.8,24.8,49,30.31,10.0,South,3.5,-,N/A,,Clear,180,2012-10-29 01:15:00
7:35 PM,42.8,24.8,49,30.32,10.0,SE,3.5,-,N/A,,Clear,130,2012-10-29 01:35:00
7:55 PM,41.0,23.0,49,30.33,10.0,Calm,Calm,-,N/A,,Clear,0,2012-10-29 01:55:00
8:15 PM,41.0,23.0,49,30.33,10.0,SE,3.5,-,N/A,,Clear,130,2012-10-29 02:15:00
8:35 PM,39.2,23.0,52,30.33,10.0,ESE,5.8,-,N/A,,Clear,110,2012-10-29 02:35:00
8:55 PM,37.4,23.0,56,30.33,10.0,ESE,6.9,-,N/A,,Clear,110,2012-10-29 02:55:00
9:15 PM,37.4,24.8,60,30.34,10.0,SE,6.9,-,N/A,,Clear,130,2012-10-29 03:15:00
9:35 PM,37.4,24.8,60,30.35,10.0,ESE,5.8,-,N/A,,Clear,120,2012-10-29 03:35:00
9:55 PM,35.6,24.8,65,30.35,10.0,SE,4.6,-,N/A,,Clear,130,2012-10-29 03:55:00
10:15 PM,35.6,24.8,65,30.36,10.0,ESE,4.6,-,N/A,,Clear,120,2012-10-29 04:15:00
10:35 PM,35.6,24.8,65,30.36,10.0,ESE,5.8,-,N/A,,Clear,120,2012-10-29 04:35:00
10:55 PM,35.6,24.8,65,30.36,10.0,SE,5.8,-,N/A,,Clear,130,2012-10-29 04:55:00
11:15 PM,35.6,24.8,65,30.37,10.0,ESE,6.9,-,N/A,,Clear,120,2012-10-29 05:15:00
11:35 PM,35.6,24.8,65,30.37,10.0,SE,5.8,-,N/A,,Clear,130,2012-10-29 05:35:00
11:55 PM,35.6,24.8,65,30.37,10.0,SE,5.8,-,N/A,,Clear,130,2012-10-29 05:55:00